Time;durP1;ratioP1;P1;durP2;ratioP2;P2;SDS_P1;SDS_P2;PMS_P1;PMS_P2;Temp;Humidity;BMP_temperature;BMP_pressure;BME280_temperature;BME280_humidity;BME280_pressure;Samples;Min_cycle;Max_cycle;Signal;HPM_P1;HPM_P2
2021/05/23 00:01:58;;;;;;;1.58;1.17;;;15.10;71.50;;;;;;5081562;28;27368;-64
2021/05/23 00:05:25;;;;;;;2.03;0.90;;;15.00;71.00;;;;;;5084139;28;27344;-64
2021/05/23 00:09:11;;;;;;;3.70;0.93;;;15.00;71.60;;;;;;5080611;28;27525;-64
2021/05/23 00:12:39;;;;;;;2.60;0.98;;;15.00;72.40;;;;;;5084006;28;27489;-64
2021/05/23 00:15:59;;;;;;;1.23;1.08;;;14.90;71.40;;;;;;5084487;28;27389;-64
2021/05/23 00:19:26;;;;;;;3.30;1.00;;;14.90;72.00;;;;;;5084362;28;27422;-63
2021/05/23 00:22:50;;;;;;;1.00;0.70;;;14.90;71.90;;;;;;5081292;28;27526;-63
2021/05/23 00:25:56;;;;;;;1.85;0.82;;;14.90;71.70;;;;;;5083343;28;27451;-63
2021/05/23 00:29:24;;;;;;;1.52;0.85;;;14.90;71.90;;;;;;5084442;28;27476;-64
2021/05/23 00:32:52;;;;;;;3.75;0.70;;;14.80;72.00;;;;;;5082785;28;27366;-64
2021/05/23 00:36:16;;;;;;;2.53;1.05;;;14.80;71.90;;;;;;5084150;28;27394;-64
2021/05/23 00:39:43;;;;;;;1.27;0.73;;;14.80;72.10;;;;;;5080479;28;27317;-63
2021/05/23 00:42:58;;;;;;;2.30;0.82;;;14.80;72.10;;;;;;5080816;28;27366;-64
2021/05/23 00:46:11;;;;;;;1.85;0.73;;;14.80;72.00;;;;;;5083501;28;27542;-64
2021/05/23 00:49:03;;;;;;;1.05;0.80;;;14.80;72.40;;;;;;5084259;28;27479;-63
2021/05/23 00:52:10;;;;;;;2.50;0.80;;;14.80;72.60;;;;;;5083195;28;27454;-64
2021/05/23 00:55:37;;;;;;;1.20;0.80;;;14.80;72.30;;;;;;5083356;28;27554;-63
2021/05/23 00:59:01;;;;;;;1.30;0.80;;;14.80;73.40;;;;;;5083469;28;27814;-63
2021/05/23 01:01:50;;;;;;;3.30;0.95;;;14.80;73.80;;;;;;5083830;28;27389;-63
2021/05/23 01:05:05;;;;;;;1.95;0.75;;;14.80;73.80;;;;;;5083389;28;27420;-62
2021/05/23 01:08:03;;;;;;;2.90;0.90;;;14.70;73.10;;;;;;5083709;28;27481;-63
2021/05/23 01:11:16;;;;;;;5.32;1.00;;;14.70;72.70;;;;;;5083040;28;27805;-62
2021/05/23 01:14:16;;;;;;;6.47;0.70;;;14.70;72.90;;;;;;5083118;28;27404;-60
2021/05/23 01:17:02;;;;;;;1.38;0.75;;;14.70;73.10;;;;;;5079833;28;27407;-63
2021/05/23 01:20:02;;;;;;;0.90;0.70;;;14.70;72.90;;;;;;5082755;28;27309;-63
2021/05/23 01:23:22;;;;;;;3.63;0.85;;;14.70;73.50;;;;;;5083430;28;27446;-64
2021/05/23 01:26:22;;;;;;;1.33;0.60;;;14.70;73.40;;;;;;5082060;28;27531;-63
2021/05/23 01:29:27;;;;;;;3.72;1.10;;;14.60;74.00;;;;;;5082612;28;27427;-63
2021/05/23 01:32:54;;;;;;;3.67;0.80;;;14.60;73.50;;;;;;5083107;28;27451;-63
2021/05/23 01:36:22;;;;;;;3.05;1.02;;;14.60;73.60;;;;;;5082700;28;27997;-63
2021/05/23 01:39:50;;;;;;;1.90;0.77;;;14.60;73.10;;;;;;5081425;28;27381;-63
2021/05/23 01:43:16;;;;;;;0.60;0.40;;;14.60;73.60;;;;;;5079730;28;27422;-63
2021/05/23 01:46:43;;;;;;;1.08;0.52;;;14.60;74.00;;;;;;5068369;28;27482;-63
2021/05/23 01:49:48;;;;;;;1.25;0.57;;;14.50;73.30;;;;;;5083149;28;27429;-63
2021/05/23 01:52:56;;;;;;;3.40;0.93;;;14.50;73.40;;;;;;5110411;27;27621;-64
2021/05/23 01:55:53;;;;;;;1.52;0.57;;;14.50;74.00;;;;;;5082999;28;27391;-64
2021/05/23 01:59:19;;;;;;;1.02;0.52;;;14.50;73.90;;;;;;5079721;28;27324;-63
2021/05/23 02:02:32;;;;;;;1.60;0.55;;;14.50;73.90;;;;;;5081919;28;27462;-63
2021/05/23 02:05:43;;;;;;;1.13;0.60;;;14.50;74.40;;;;;;5079606;28;27420;-63
2021/05/23 02:08:49;;;;;;;3.60;0.65;;;14.50;74.30;;;;;;5107777;27;27413;-64
2021/05/23 02:11:41;;;;;;;1.55;0.63;;;14.50;74.30;;;;;;5082467;28;27395;-64
2021/05/23 02:14:33;;;;;;;0.55;0.50;;;14.50;74.80;;;;;;5082975;28;27434;-63
2021/05/23 02:17:30;;;;;;;0.40;0.40;;;14.50;74.60;;;;;;5083039;28;27353;-63
2021/05/23 02:20:39;;;;;;;0.82;0.68;;;14.50;74.40;;;;;;5082503;28;27502;-65
2021/05/23 02:23:40;;;;;;;2.63;1.27;;;14.50;74.60;;;;;;5079969;28;27382;-60
2021/05/23 02:27:08;;;;;;;2.67;0.57;;;14.50;74.30;;;;;;5085168;28;27463;-64
2021/05/23 02:30:37;;;;;;;1.35;0.50;;;14.50;74.50;;;;;;5086384;28;27342;-64
2021/05/23 02:33:48;;;;;;;1.90;0.50;;;14.50;74.00;;;;;;5085830;28;27395;-64
2021/05/23 02:36:57;;;;;;;1.13;0.60;;;14.50;73.90;;;;;;5085819;28;27443;-63
2021/05/23 02:40:09;;;;;;;0.82;0.80;;;14.50;73.60;;;;;;5114002;27;27338;-63
2021/05/23 02:43:37;;;;;;;2.25;0.63;;;14.50;73.50;;;;;;5085783;28;27344;-64
2021/05/23 02:47:18;;;;;;;3.50;0.45;;;14.60;74.00;;;;;;5085189;28;27465;-63
2021/05/23 02:50:44;;;;;;;0.60;0.50;;;14.50;74.20;;;;;;5085662;28;27518;-63
2021/05/23 02:54:11;;;;;;;0.98;0.50;;;14.50;74.20;;;;;;5085816;28;27836;-62
2021/05/23 02:57:58;;;;;;;0.98;0.50;;;14.50;74.50;;;;;;5085332;28;27387;-63
2021/05/23 03:01:45;;;;;;;0.55;0.40;;;14.50;74.90;;;;;;5085372;28;27629;-63
2021/05/23 03:04:56;;;;;;;1.23;0.38;;;14.40;75.00;;;;;;5084778;28;27419;-63
2021/05/23 03:08:11;;;;;;;1.30;0.40;;;14.40;75.00;;;;;;5085140;28;27364;-63
2021/05/23 03:11:26;;;;;;;1.02;0.40;;;14.30;75.30;;;;;;5111706;27;27530;-63
2021/05/23 03:14:34;;;;;;;0.82;0.40;;;14.30;75.30;;;;;;5085135;28;27346;-63
2021/05/23 03:17:40;;;;;;;0.60;0.30;;;14.30;75.60;;;;;;5113629;27;27508;-63
2021/05/23 03:21:07;;;;;;;0.32;0.32;;;14.30;75.60;;;;;;5085219;28;27427;-63
2021/05/23 03:24:13;;;;;;;1.65;0.50;;;14.20;75.70;;;;;;5083788;28;27613;-63
2021/05/23 03:27:19;;;;;;;2.40;0.60;;;14.20;75.90;;;;;;5084762;28;27651;-63
2021/05/23 03:30:28;;;;;;;0.80;0.30;;;14.10;75.90;;;;;;5084961;28;27416;-63
2021/05/23 03:33:40;;;;;;;0.60;0.40;;;14.10;76.20;;;;;;5084652;28;27432;-63
2021/05/23 03:36:33;;;;;;;3.40;0.40;;;14.10;76.40;;;;;;5080993;28;27332;-63
2021/05/23 03:39:38;;;;;;;1.55;0.50;;;14.10;76.60;;;;;;5085078;28;27428;-63
2021/05/23 03:42:46;;;;;;;0.75;0.40;;;14.00;76.60;;;;;;5085038;28;27701;-63
2021/05/23 03:45:43;;;;;;;0.85;0.55;;;14.00;76.80;;;;;;5084560;28;27842;-63
2021/05/23 03:49:11;;;;;;;1.65;0.40;;;13.90;77.00;;;;;;5084858;28;27485;-64
2021/05/23 03:52:44;;;;;;;1.65;1.00;;;14.00;76.90;;;;;;5084375;28;27623;-63
2021/05/23 03:55:57;;;;;;;12.00;2.05;;;13.90;77.00;;;;;;5084765;28;27513;-64
2021/05/23 03:59:25;;;;;;;0.47;0.47;;;13.90;77.10;;;;;;5084965;28;27351;-63
2021/05/23 04:02:53;;;;;;;1.52;0.38;;;13.90;77.70;;;;;;5084606;28;27558;-63
2021/05/23 04:06:19;;;;;;;0.80;0.60;;;13.90;77.60;;;;;;5083974;28;27488;-63
2021/05/23 04:09:20;;;;;;;0.50;0.40;;;13.80;77.30;;;;;;5084338;28;27364;-63
2021/05/23 04:12:53;;;;;;;2.50;0.50;;;13.80;77.30;;;;;;5083932;28;27473;-64
2021/05/23 04:15:59;;;;;;;0.47;0.30;;;13.80;77.30;;;;;;5083369;28;27388;-63
2021/05/23 04:19:06;;;;;;;0.50;0.40;;;13.80;78.00;;;;;;5084001;28;27620;-64
2021/05/23 04:22:33;;;;;;;1.08;0.52;;;13.80;77.70;;;;;;5083769;28;27416;-63
2021/05/23 04:26:39;;;;;;;2.10;0.50;;;13.80;78.10;;;;;;5080651;28;27484;-63
2021/05/23 04:30:25;;;;;;;0.93;0.45;;;13.80;77.90;;;;;;5080666;28;27486;-63
2021/05/23 04:33:52;;;;;;;0.95;0.50;;;13.80;78.20;;;;;;5083035;28;27628;-63
2021/05/23 04:37:43;;;;;;;2.15;0.60;;;13.80;77.90;;;;;;5082922;28;27346;-63
2021/05/23 04:41:13;;;;;;;0.95;0.60;;;13.80;77.60;;;;;;5083784;28;27818;-63
2021/05/23 04:44:40;;;;;;;3.90;0.60;;;13.80;78.20;;;;;;5084074;28;27496;-63
2021/05/23 04:48:16;;;;;;;1.38;0.57;;;13.80;78.30;;;;;;5083196;28;27482;-63
2021/05/23 04:51:43;;;;;;;1.10;0.63;;;13.80;78.60;;;;;;5083815;28;27450;-63
2021/05/23 04:54:51;;;;;;;1.10;0.43;;;13.80;78.20;;;;;;5083333;28;27976;-63
2021/05/23 04:57:57;;;;;;;0.30;0.30;;;13.80;78.30;;;;;;5083825;28;27431;-63
2021/05/23 05:01:25;;;;;;;2.92;0.50;;;13.80;78.20;;;;;;5083611;28;27312;-63
2021/05/23 05:04:37;;;;;;;0.45;0.40;;;13.80;78.30;;;;;;5083276;28;27561;-63
2021/05/23 05:08:04;;;;;;;0.93;0.40;;;13.80;78.80;;;;;;5081787;28;27631;-63
2021/05/23 05:11:32;;;;;;;0.30;0.30;;;13.80;78.40;;;;;;5082871;28;27656;-63
2021/05/23 05:15:20;;;;;;;1.52;0.40;;;13.90;78.70;;;;;;5082824;28;27540;-63
2021/05/23 05:18:53;;;;;;;0.57;0.40;;;13.90;79.00;;;;;;5083764;28;27419;-64
2021/05/23 05:21:59;;;;;;;0.80;0.50;;;13.90;78.70;;;;;;5083238;28;27554;-63
2021/05/23 05:25:06;;;;;;;1.65;0.55;;;13.90;78.40;;;;;;5082507;28;27350;-63
2021/05/23 05:28:18;;;;;;;0.57;0.30;;;14.00;78.30;;;;;;5083328;28;27320;-63
2021/05/23 05:31:45;;;;;;;0.73;0.30;;;13.90;77.80;;;;;;5083243;28;27681;-64
2021/05/23 05:34:50;;;;;;;0.40;0.40;;;13.90;78.10;;;;;;5082380;28;28039;-60
2021/05/23 05:38:03;;;;;;;0.60;0.40;;;13.90;78.10;;;;;;5083068;28;27499;-63
2021/05/23 05:41:08;;;;;;;1.23;0.40;;;13.90;78.40;;;;;;5083317;28;27459;-63
2021/05/23 05:44:15;;;;;;;1.30;0.40;;;13.90;78.40;;;;;;5082274;28;27451;-63
2021/05/23 05:47:12;;;;;;;0.50;0.50;;;13.90;79.00;;;;;;5082957;28;27957;-63
2021/05/23 05:50:15;;;;;;;2.58;0.68;;;14.00;78.80;;;;;;5079217;28;27337;-64
2021/05/23 05:53:41;;;;;;;4.32;0.43;;;14.10;77.80;;;;;;5082525;28;27316;-64
2021/05/23 05:57:08;;;;;;;1.30;0.50;;;14.10;76.80;;;;;;5082372;28;27371;-63
2021/05/23 06:00:15;;;;;;;2.92;0.47;;;14.10;77.40;;;;;;5086027;28;27406;-63
2021/05/23 06:03:27;;;;;;;0.43;0.40;;;14.10;78.10;;;;;;5085773;28;27423;-63
2021/05/23 06:06:40;;;;;;;0.70;0.70;;;14.00;78.20;;;;;;5086248;28;27427;-63
2021/05/23 06:10:40;;;;;;;0.63;0.45;;;14.00;76.80;;;;;;5085100;28;27516;-63
2021/05/23 06:13:46;;;;;;;4.55;0.60;;;14.00;77.00;;;;;;5085985;28;27486;-63
2021/05/23 06:16:51;;;;;;;0.35;0.35;;;14.00;76.40;;;;;;5085731;28;27441;-63
2021/05/23 06:19:58;;;;;;;0.32;0.32;;;14.00;76.90;;;;;;5086313;28;27474;-63
2021/05/23 06:22:55;;;;;;;0.80;0.35;;;14.10;76.70;;;;;;5086275;28;27041;-63
2021/05/23 06:26:01;;;;;;;0.70;0.40;;;14.10;77.40;;;;;;5085347;28;27422;-64
2021/05/23 06:29:13;;;;;;;3.50;0.70;;;14.10;76.20;;;;;;5085862;28;27415;-63
2021/05/23 06:31:58;;;;;;;0.32;0.30;;;14.10;76.00;;;;;;5085877;28;27419;-60
2021/05/23 06:35:04;;;;;;;1.38;0.50;;;14.10;77.10;;;;;;5086310;28;27473;-63
2021/05/23 06:38:16;;;;;;;0.25;0.25;;;14.10;75.10;;;;;;5085953;28;27445;-63
2021/05/23 06:41:14;;;;;;;1.25;0.43;;;14.20;75.80;;;;;;5084509;28;27546;-63
2021/05/23 06:44:06;;;;;;;1.58;0.60;;;14.30;75.00;;;;;;5082251;28;27436;-63
2021/05/23 06:47:18;;;;;;;1.05;0.32;;;14.60;75.60;;;;;;5085849;28;27412;-64
2021/05/23 06:50:27;;;;;;;0.43;0.40;;;15.00;73.30;;;;;;5086057;28;27363;-64
2021/05/23 06:53:24;;;;;;;0.25;0.25;;;15.50;72.70;;;;;;5085303;28;27478;-64
2021/05/23 06:56:16;;;;;;;0.30;0.30;;;15.90;71.50;;;;;;5085500;28;27504;-63
2021/05/23 06:59:23;;;;;;;0.40;0.40;;;16.20;70.10;;;;;;5082771;28;27458;-63
2021/05/23 07:02:08;;;;;;;0.68;0.50;;;16.60;69.30;;;;;;5084801;28;27821;-61
2021/05/23 07:04:59;;;;;;;0.77;0.40;;;16.80;68.70;;;;;;5085725;28;27445;-64
2021/05/23 07:07:56;;;;;;;0.47;0.40;;;16.80;69.20;;;;;;5082385;28;27526;-64
2021/05/23 07:10:47;;;;;;;0.40;0.30;;;17.20;67.80;;;;;;5081844;28;27403;-64
2021/05/23 07:13:38;;;;;;;1.33;0.50;;;17.20;66.70;;;;;;5085496;28;27385;-64
2021/05/23 07:16:56;;;;;;;0.50;0.38;;;17.00;69.00;;;;;;5082219;28;27475;-64
2021/05/23 07:19:47;;;;;;;1.13;0.60;;;16.80;69.10;;;;;;5085690;28;27333;-64
2021/05/23 07:22:44;;;;;;;0.85;0.40;;;16.70;70.20;;;;;;5085310;28;27418;-64
2021/05/23 07:25:35;;;;;;;0.57;0.45;;;16.40;69.70;;;;;;5084451;28;27474;-64
2021/05/23 07:28:28;;;;;;;0.63;0.40;;;16.20;70.70;;;;;;5085246;28;27508;-63
2021/05/23 07:31:33;;;;;;;1.08;0.43;;;16.00;72.50;;;;;;5085534;28;27376;-64
2021/05/23 07:34:59;;;;;;;0.55;0.50;;;15.80;71.10;;;;;;5083950;28;27371;-61
2021/05/23 07:37:57;;;;;;;0.98;0.47;;;15.70;73.00;;;;;;5084537;28;27329;-64
2021/05/23 07:40:53;;;;;;;1.85;0.52;;;15.80;73.00;;;;;;5085475;27;27582;-64
2021/05/23 07:43:44;;;;;;;1.63;0.32;;;15.80;70.90;;;;;;5085337;28;27419;-64
2021/05/23 07:46:57;;;;;;;0.45;0.35;;;15.80;71.50;;;;;;5081480;28;27381;-64
2021/05/23 07:50:04;;;;;;;0.73;0.40;;;15.80;72.60;;;;;;5083858;28;27321;-64
2021/05/23 07:52:55;;;;;;;1.10;0.60;;;15.70;72.60;;;;;;5084393;28;27336;-65
2021/05/23 07:55:50;;;;;;;1.33;0.60;;;15.70;73.20;;;;;;5069651;28;27450;-65
2021/05/23 07:59:17;;;;;;;2.10;0.50;;;15.70;74.60;;;;;;5080960;28;27316;-65
2021/05/23 08:02:35;;;;;;;0.88;0.32;;;15.60;75.00;;;;;;5084257;28;27450;-65
2021/05/23 08:05:27;;;;;;;0.50;0.40;;;15.60;75.00;;;;;;5083374;28;27439;-64
2021/05/23 08:08:18;;;;;;;1.35;0.60;;;15.60;74.70;;;;;;5084729;28;26950;-65
2021/05/23 08:11:10;;;;;;;0.95;0.30;;;15.60;74.70;;;;;;5084888;28;27428;-65
2021/05/23 08:14:07;;;;;;;3.40;0.65;;;16.00;74.30;;;;;;5084878;28;27545;-65
2021/05/23 08:17:14;;;;;;;2.40;0.60;;;16.70;72.00;;;;;;5084585;28;27419;-66
2021/05/23 08:20:20;;;;;;;1.98;0.60;;;17.80;70.10;;;;;;5082608;28;27492;-66
2021/05/23 08:23:11;;;;;;;1.88;0.60;;;18.70;68.50;;;;;;5083962;28;27390;-66
2021/05/23 08:26:09;;;;;;;2.38;0.85;;;19.00;67.20;;;;;;5084368;28;27547;-67
2021/05/23 08:29:15;;;;;;;0.77;0.40;;;19.20;66.30;;;;;;5084233;28;27465;-66
2021/05/23 08:32:16;;;;;;;1.65;0.60;;;19.60;65.00;;;;;;5083813;28;27407;-67
2021/05/23 08:35:51;;;;;;;3.33;0.55;;;20.20;64.00;;;;;;5083081;28;27522;-66
2021/05/23 08:38:45;;;;;;;1.38;0.60;;;20.10;61.10;;;;;;5084114;28;27898;-67
2021/05/23 08:41:53;;;;;;;1.08;0.50;;;19.90;60.90;;;;;;5068951;28;27561;-67
2021/05/23 08:44:51;;;;;;;2.67;0.90;;;19.50;61.10;;;;;;5084244;28;27419;-67
2021/05/23 08:48:18;;;;;;;1.75;0.73;;;19.10;61.30;;;;;;5080777;28;27458;-67
2021/05/23 08:51:24;;;;;;;3.22;0.60;;;18.80;61.90;;;;;;5084235;28;27403;-67
2021/05/23 08:54:48;;;;;;;2.17;0.70;;;18.50;64.50;;;;;;5083841;28;27375;-67
2021/05/23 08:58:01;;;;;;;3.63;0.60;;;18.40;65.20;;;;;;5084214;28;27375;-65
2021/05/23 09:00:58;;;;;;;2.40;0.47;;;18.20;65.00;;;;;;5083675;28;27387;-67
2021/05/23 09:03:56;;;;;;;0.75;0.40;;;18.00;64.30;;;;;;5080045;28;27358;-67
2021/05/23 09:07:03;;;;;;;2.05;0.80;;;17.90;66.00;;;;;;5084192;28;27517;-66
2021/05/23 09:10:15;;;;;;;2.35;0.77;;;17.70;65.70;;;;;;5081337;28;27454;-67
2021/05/23 09:13:29;;;;;;;5.10;1.23;;;17.50;66.50;;;;;;5082240;28;27459;-66
2021/05/23 09:16:42;;;;;;;7.13;1.02;;;17.30;69.80;;;;;;5084687;28;27320;-66
2021/05/23 09:19:39;;;;;;;3.70;1.23;;;17.20;69.30;;;;;;5084399;28;27386;-66
2021/05/23 09:22:52;;;;;;;2.45;0.60;;;17.00;70.10;;;;;;5084649;28;27313;-67
2021/05/23 09:26:02;;;;;;;2.75;0.60;;;16.90;70.80;;;;;;5083091;28;27372;-66
2021/05/23 09:28:59;;;;;;;3.40;0.90;;;16.90;70.90;;;;;;5084499;28;27472;-65
2021/05/23 09:32:11;;;;;;;2.90;0.75;;;17.50;70.70;;;;;;5083115;28;27419;-65
2021/05/23 09:35:22;;;;;;;1.50;0.60;;;18.20;70.30;;;;;;5083849;28;27328;-67
2021/05/23 09:38:16;;;;;;;1.55;0.70;;;19.20;70.00;;;;;;5084169;28;27363;-66
2021/05/23 09:41:23;;;;;;;2.65;0.77;;;19.90;67.90;;;;;;5083545;28;27324;-68
2021/05/23 09:44:48;;;;;;;1.70;0.93;;;20.60;66.60;;;;;;5083524;28;27338;-66
2021/05/23 09:47:55;;;;;;;1.70;0.65;;;21.20;63.40;;;;;;5084071;28;27376;-62
2021/05/23 09:51:10;;;;;;;3.53;1.02;;;21.40;62.90;;;;;;5082746;28;27640;-67
2021/05/23 09:54:25;;;;;;;2.80;0.63;;;21.40;62.30;;;;;;5083917;28;27513;-68
2021/05/23 09:57:33;;;;;;;1.08;0.40;;;21.30;60.90;;;;;;5082259;28;27455;-69
2021/05/23 10:00:38;;;;;;;5.53;0.90;;;20.80;64.30;;;;;;5083931;28;27501;-67
2021/05/23 10:04:07;;;;;;;0.68;0.50;;;20.50;66.50;;;;;;5084200;28;27479;-67
2021/05/23 10:07:40;;;;;;;1.30;0.60;;;20.30;68.20;;;;;;5082991;28;27454;-67
2021/05/23 10:11:07;;;;;;;1.45;0.70;;;20.20;67.20;;;;;;5083325;28;27387;-67
2021/05/23 10:14:13;;;;;;;3.20;0.93;;;20.50;69.80;;;;;;5084142;28;27347;-67
2021/05/23 10:17:07;;;;;;;2.63;0.60;;;21.00;69.20;;;;;;5080645;28;27330;-69
2021/05/23 10:20:19;;;;;;;1.83;0.60;;;21.50;68.50;;;;;;5084082;28;27367;-69
2021/05/23 10:23:27;;;;;;;2.05;0.70;;;22.10;69.10;;;;;;5083669;28;27457;-63
2021/05/23 10:26:53;;;;;;;3.67;0.77;;;22.40;64.80;;;;;;5083758;28;27348;-69
2021/05/23 10:30:11;;;;;;;1.48;0.60;;;22.40;63.70;;;;;;5082846;28;27400;-69
2021/05/23 10:33:09;;;;;;;3.17;0.63;;;22.30;65.90;;;;;;5083873;28;27919;-69
2021/05/23 10:36:22;;;;;;;2.72;0.70;;;22.10;63.60;;;;;;5083218;28;27511;-69
2021/05/23 10:39:34;;;;;;;2.00;0.70;;;21.60;64.80;;;;;;5082956;28;26984;-68
2021/05/23 10:42:47;;;;;;;0.63;0.55;;;21.20;64.00;;;;;;5083394;28;27395;-67
2021/05/23 10:46:04;;;;;;;3.75;0.55;;;20.80;64.50;;;;;;5086050;28;27466;-69
2021/05/23 10:49:32;;;;;;;1.33;0.75;;;20.50;62.30;;;;;;5086333;28;27646;-68
2021/05/23 10:52:40;;;;;;;0.82;0.68;;;20.20;62.10;;;;;;5086454;28;27338;-68
2021/05/23 10:55:55;;;;;;;3.55;0.40;;;20.00;62.30;;;;;;5086815;28;27321;-67
2021/05/23 10:58:50;;;;;;;2.15;0.60;;;19.90;62.40;;;;;;5086719;28;27327;-67
2021/05/23 11:01:58;;;;;;;0.80;0.40;;;19.70;62.60;;;;;;5086122;28;27399;-68
2021/05/23 11:05:30;;;;;;;1.70;0.65;;;19.60;64.60;;;;;;5086552;28;27401;-68
2021/05/23 11:08:27;;;;;;;0.50;0.47;;;19.50;64.20;;;;;;5125301;27;27422;-62
2021/05/23 11:11:23;;;;;;;0.50;0.50;;;19.40;65.40;;;;;;5111281;27;27430;-62
2021/05/23 11:14:17;;;;;;;2.45;0.65;;;19.30;65.30;;;;;;5125984;27;27454;-63
2021/05/23 11:17:42;;;;;;;1.17;0.70;;;19.40;65.30;;;;;;5126023;27;27392;-67
2021/05/23 11:20:56;;;;;;;2.20;0.50;;;19.40;65.00;;;;;;5125593;27;27438;-67
2021/05/23 11:23:53;;;;;;;0.45;0.30;;;19.40;64.70;;;;;;5125148;27;27832;-67
2021/05/23 11:27:14;;;;;;;2.53;0.60;;;19.40;65.20;;;;;;5125190;27;27443;-67
2021/05/23 11:30:10;;;;;;;0.73;0.35;;;19.50;66.20;;;;;;5125192;27;27074;-66
2021/05/23 11:33:40;;;;;;;0.77;0.30;;;19.60;67.10;;;;;;5110557;27;27406;-66
2021/05/23 11:36:46;;;;;;;1.77;0.40;;;19.60;67.90;;;;;;5125011;27;27853;-67
2021/05/23 11:40:11;;;;;;;3.72;0.52;;;19.80;67.30;;;;;;5124996;27;27477;-67
2021/05/23 11:43:29;;;;;;;1.52;0.85;;;20.20;67.80;;;;;;5110980;27;27514;-67
2021/05/23 11:46:58;;;;;;;2.40;0.57;;;20.50;68.80;;;;;;5085301;28;27414;-67
2021/05/23 11:50:25;;;;;;;1.05;0.75;;;20.90;66.60;;;;;;5113867;27;27758;-67
2021/05/23 11:53:39;;;;;;;2.38;0.55;;;21.10;66.80;;;;;;5085381;28;27423;-68
2021/05/23 11:56:59;;;;;;;1.50;0.57;;;21.20;66.40;;;;;;5084201;28;27410;-68
2021/05/23 12:00:17;;;;;;;1.02;0.70;;;21.30;64.00;;;;;;5085965;28;27427;-68
2021/05/23 12:03:26;;;;;;;1.40;0.55;;;21.60;65.50;;;;;;5085318;28;27340;-68
2021/05/23 12:06:15;;;;;;;1.58;0.50;;;21.90;65.10;;;;;;5081640;28;27434;-63
2021/05/23 12:09:09;;;;;;;3.15;0.63;;;22.10;66.10;;;;;;5085866;28;27399;-63
2021/05/23 12:11:57;;;;;;;2.28;0.65;;;22.40;66.50;;;;;;5085767;28;27462;-68
2021/05/23 12:15:23;;;;;;;2.40;0.65;;;22.60;66.40;;;;;;5081429;28;27901;-68
2021/05/23 12:18:53;;;;;;;1.85;0.50;;;22.90;63.40;;;;;;5085444;28;27414;-68
2021/05/23 12:21:55;;;;;;;3.25;0.47;;;23.10;61.40;;;;;;5085530;28;27453;-69
2021/05/23 12:25:03;;;;;;;1.55;0.70;;;23.10;61.20;;;;;;5083447;28;27447;-68
2021/05/23 12:28:08;;;;;;;0.47;0.40;;;23.20;62.90;;;;;;5084148;28;27455;-69
2021/05/23 12:31:26;;;;;;;2.17;0.50;;;23.30;63.80;;;;;;5085267;28;27407;-69
2021/05/23 12:34:12;;;;;;;2.80;0.60;;;23.40;62.90;;;;;;5085536;28;27379;-63
2021/05/23 12:37:31;;;;;;;0.20;0.20;;;23.40;62.90;;;;;;5085188;28;27383;-69
2021/05/23 12:40:54;;;;;;;0.73;0.30;;;23.40;62.70;;;;;;5085088;28;27504;-69
2021/05/23 12:43:52;;;;;;;0.47;0.40;;;23.40;62.00;;;;;;5084104;28;27368;-69
2021/05/23 12:47:05;;;;;;;0.75;0.32;;;23.50;63.10;;;;;;5085016;28;26915;-69
2021/05/23 12:50:34;;;;;;;1.00;0.50;;;23.70;63.50;;;;;;5084678;28;27570;-69
2021/05/23 12:53:56;;;;;;;0.50;0.38;;;23.80;63.20;;;;;;5084681;28;27424;-69
2021/05/23 12:57:05;;;;;;;1.75;0.38;;;23.80;61.80;;;;;;5084150;28;27478;-69
2021/05/23 13:00:05;;;;;;;1.25;0.45;;;23.80;64.60;;;;;;5083067;28;27383;-69
2021/05/23 13:03:02;;;;;;;1.23;0.50;;;23.80;66.20;;;;;;5081694;28;27463;-70
2021/05/23 13:06:32;;;;;;;1.35;0.60;;;23.80;68.00;;;;;;5084459;28;27470;-71
2021/05/23 13:09:40;;;;;;;2.53;0.57;;;23.70;51.90;;;;;;5085146;28;27466;-66
2021/05/23 13:12:32;;;;;;;4.40;0.80;;;23.40;44.20;;;;;;5084830;28;26919;-65
2021/05/23 13:15:26;;;;;;;3.60;0.70;;;23.20;47.20;;;;;;5084572;28;27398;-66
2021/05/23 13:18:20;;;;;;;8.02;1.05;;;23.10;55.10;;;;;;5083875;28;27955;-65
2021/05/23 13:21:36;;;;;;;3.15;0.90;;;23.20;62.40;;;;;;5083614;28;27375;-65
2021/05/23 13:24:28;;;;;;;6.75;0.80;;;23.20;63.80;;;;;;5083628;28;27383;-64
2021/05/23 13:27:22;;;;;;;2.58;1.00;;;23.30;64.10;;;;;;5083726;28;27664;-65
2021/05/23 13:30:30;;;;;;;3.13;0.90;;;23.30;63.90;;;;;;5084205;28;27888;-65
2021/05/23 13:33:27;;;;;;;4.00;0.93;;;23.30;59.90;;;;;;5080952;28;27523;-65
2021/05/23 13:36:28;;;;;;;4.13;1.50;;;23.40;61.90;;;;;;5084202;28;27349;-65
2021/05/23 13:39:18;;;;;;;2.55;0.88;;;23.60;63.10;;;;;;5084137;28;26928;-65
2021/05/23 13:42:14;;;;;;;2.70;0.80;;;23.70;63.90;;;;;;5084017;28;27817;-66
2021/05/23 13:45:07;;;;;;;1.33;0.70;;;23.80;62.30;;;;;;5079950;28;27340;-66
2021/05/23 13:47:59;;;;;;;3.88;0.98;;;23.90;62.40;;;;;;5083634;28;27416;-64
2021/05/23 13:50:57;;;;;;;3.75;0.80;;;24.00;62.30;;;;;;5068612;28;27506;-66
2021/05/23 13:53:48;;;;;;;2.55;0.50;;;24.10;63.10;;;;;;5084192;28;27372;-64
2021/05/23 13:56:39;;;;;;;3.70;0.77;;;24.00;46.70;;;;;;5084040;28;27452;-66
2021/05/23 13:59:30;;;;;;;5.78;1.20;;;24.00;50.80;;;;;;5084230;28;27367;-63
2021/05/23 14:02:41;;;;;;;5.60;0.82;;;23.90;57.80;;;;;;5083863;28;27378;-63
2021/05/23 14:05:28;;;;;;;5.35;1.33;;;23.90;60.60;;;;;;5083603;28;27922;-63
2021/05/23 14:08:20;;;;;;;4.65;1.27;;;23.90;60.90;;;;;;5079823;28;27600;-63
2021/05/23 14:11:33;;;;;;;4.65;1.15;;;23.90;61.40;;;;;;5084085;28;27390;-62
2021/05/23 14:14:25;;;;;;;5.63;1.05;;;23.90;63.20;;;;;;5083161;28;27644;-63
2021/05/23 14:17:15;;;;;;;1.17;0.70;;;23.90;63.40;;;;;;5083637;28;27338;-63
2021/05/23 14:20:25;;;;;;;3.42;0.70;;;23.90;63.40;;;;;;5083367;28;27478;-63
2021/05/23 14:23:17;;;;;;;3.10;1.00;;;23.70;62.00;;;;;;5086725;28;27427;-63
2021/05/23 14:26:27;;;;;;;2.35;0.82;;;23.50;64.50;;;;;;5087316;28;27375;-63
2021/05/23 14:29:22;;;;;;;6.00;2.25;;;23.30;64.20;;;;;;5083784;28;27328;-62
2021/05/23 14:32:14;;;;;;;3.00;1.13;;;23.20;65.70;;;;;;5087338;28;27390;-63
2021/05/23 14:35:12;;;;;;;4.22;1.35;;;23.20;58.70;;;;;;5087293;28;27408;-63
2021/05/23 14:38:02;;;;;;;3.72;0.90;;;23.20;62.90;;;;;;5086942;28;27339;-63
2021/05/23 14:40:52;;;;;;;4.75;0.88;;;23.10;63.30;;;;;;5086470;28;27435;-62
2021/05/23 14:43:42;;;;;;;4.90;1.10;;;23.10;62.20;;;;;;5087113;28;27372;-63
2021/05/23 14:46:38;;;;;;;4.03;1.30;;;23.10;56.60;;;;;;5086854;28;27436;-63
2021/05/23 14:49:29;;;;;;;8.82;2.13;;;23.10;58.20;;;;;;5087089;28;27503;-63
2021/05/23 14:52:23;;;;;;;6.95;1.15;;;22.90;58.00;;;;;;5068630;28;27423;-63
2021/05/23 14:55:49;;;;;;;4.28;0.90;;;22.80;59.40;;;;;;5086688;28;27379;-63
2021/05/23 14:58:41;;;;;;;5.35;0.90;;;22.70;60.60;;;;;;5084387;28;27411;-63
2021/05/23 15:01:52;;;;;;;5.50;1.35;;;22.40;62.10;;;;;;5086418;28;27337;-64
2021/05/23 15:05:19;;;;;;;5.82;0.68;;;22.30;58.90;;;;;;5086768;28;27825;-62
2021/05/23 15:08:17;;;;;;;9.43;1.40;;;22.10;60.30;;;;;;5086246;28;27406;-47
2021/05/23 15:11:06;;;;;;;8.50;1.02;;;22.00;63.80;;;;;;5086576;28;27317;-42
2021/05/23 15:13:56;;;;;;;6.18;1.45;;;21.90;63.50;;;;;;5086024;28;27494;-47
2021/05/23 15:16:47;;;;;;;3.03;1.10;;;21.80;64.10;;;;;;5086449;28;27394;-46
2021/05/23 15:20:00;;;;;;;5.10;0.95;;;21.70;64.50;;;;;;5086228;28;27447;-42
2021/05/23 15:22:51;;;;;;;5.78;0.98;;;21.70;63.30;;;;;;5086493;28;27519;-44
2021/05/23 15:25:43;;;;;;;3.20;0.70;;;21.70;64.70;;;;;;5085328;28;27357;-49
2021/05/23 15:31:50;;;;;;;4.72;0.90;;;21.60;65.40;;;;;;5085050;28;27367;-44
2021/05/23 15:34:40;;;;;;;5.70;1.15;;;21.50;67.70;;;;;;5086314;28;27377;-45
2021/05/23 15:37:52;;;;;;;3.55;0.90;;;21.50;67.00;;;;;;5081932;28;27402;-45
2021/05/23 15:41:00;;;;;;;1.25;0.70;;;21.40;66.30;;;;;;5084621;28;27457;-43
2021/05/23 15:44:06;;;;;;;2.47;0.80;;;21.30;53.60;;;;;;5082067;28;27439;-44
2021/05/23 15:47:14;;;;;;;8.10;1.27;;;21.30;54.90;;;;;;5085029;28;27619;-48
2021/05/23 15:50:05;;;;;;;4.45;0.98;;;21.40;53.80;;;;;;5084740;28;27417;-58
2021/05/23 15:52:56;;;;;;;2.03;0.70;;;21.50;51.50;;;;;;5085687;28;27817;-68
2021/05/23 15:56:08;;;;;;;1.48;0.68;;;21.60;52.20;;;;;;5085643;28;27485;-61
2021/05/23 15:58:58;;;;;;;1.10;0.70;;;21.60;51.10;;;;;;5085740;28;27420;-66
2021/05/23 16:01:56;;;;;;;2.80;1.10;;;21.50;48.20;;;;;;5085922;28;27484;-64
2021/05/23 16:04:52;;;;;;;1.13;0.50;;;21.50;49.30;;;;;;5085957;28;27383;-63
2021/05/23 16:07:48;;;;;;;5.63;1.00;;;21.40;49.60;;;;;;5085542;28;27392;-64
2021/05/23 16:10:39;;;;;;;4.63;0.70;;;21.40;49.60;;;;;;5085886;28;27396;-64
2021/05/23 16:13:23;;;;;;;4.38;0.63;;;21.40;48.10;;;;;;5085926;28;27477;-66
2021/05/23 16:16:15;;;;;;;3.03;1.08;;;21.40;49.30;;;;;;5085931;28;27411;-62
2021/05/23 16:19:06;;;;;;;2.83;1.10;;;21.30;49.70;;;;;;5070545;28;27427;-62
2021/05/23 16:21:57;;;;;;;4.60;0.50;;;21.30;48.70;;;;;;5085353;28;27329;-62
2021/05/23 16:24:48;;;;;;;1.25;0.60;;;21.30;50.60;;;;;;5084690;28;27462;-62
2021/05/23 16:27:41;;;;;;;1.80;0.57;;;21.30;54.10;;;;;;5085411;28;27378;-62